Time;durP1;ratioP1;P1;durP2;ratioP2;P2;SDS_P1;SDS_P2;PMS_P1;PMS_P2;Temp;Humidity;BMP_temperature;BMP_pressure;BME280_temperature;BME280_humidity;BME280_pressure;Samples;Min_cycle;Max_cycle;Signal;HPM_P1;HPM_P2
2022/04/22 00:00:06;;;;;;;20.27;10.63;;;9.30;99.90;9.30;100056.00;;;;4879830;28;122180;-65
2022/04/22 00:02:32;;;;;;;17.93;11.73;;;9.30;99.90;9.30;100061.00;;;;4879658;28;103307;-66
2022/04/22 00:04:58;;;;;;;23.10;11.77;;;9.30;99.90;9.30;100054.00;;;;4880039;28;109432;-66
2022/04/22 00:07:23;;;;;;;16.73;11.10;;;9.30;99.90;9.30;100053.00;;;;4869190;28;93715;-65
2022/04/22 00:09:49;;;;;;;20.40;10.90;;;9.30;99.90;9.30;100055.00;;;;4860388;28;122808;-65
2022/04/22 00:12:15;;;;;;;17.90;10.63;;;9.30;99.90;9.30;100054.00;;;;4859708;28;111874;-65
2022/04/22 00:14:40;;;;;;;23.23;11.83;;;9.30;99.90;9.30;100049.00;;;;4860520;28;107695;-66
2022/04/22 00:17:06;;;;;;;15.63;10.80;;;9.30;99.90;9.30;100045.00;;;;4868836;28;112736;-65
2022/04/22 00:19:32;;;;;;;20.17;10.20;;;9.30;99.90;9.20;100052.00;;;;4880114;28;92637;-66
2022/04/22 00:21:58;;;;;;;18.53;12.00;;;9.30;99.90;9.20;100052.00;;;;4880007;28;114127;-66
2022/04/22 00:24:23;;;;;;;18.23;10.37;;;9.30;99.90;9.20;100045.00;;;;4879979;28;107645;-65
2022/04/22 00:26:49;;;;;;;21.97;11.13;;;9.30;99.90;9.20;100050.00;;;;4875928;28;123662;-66
2022/04/22 00:29:15;;;;;;;17.97;10.93;;;9.30;99.90;9.20;100037.00;;;;4880241;28;103730;-65
2022/04/22 00:31:40;;;;;;;15.17;10.67;;;9.30;99.90;9.20;100041.00;;;;4880361;28;92820;-65
2022/04/22 00:34:06;;;;;;;14.57;10.53;;;9.30;99.90;9.20;100040.00;;;;4879735;28;107432;-66
2022/04/22 00:36:32;;;;;;;19.07;11.93;;;9.30;99.90;9.20;100052.00;;;;4876540;28;93690;-66
2022/04/22 00:38:57;;;;;;;17.30;10.53;;;9.30;99.90;9.20;100033.00;;;;4871655;28;122601;-66
2022/04/22 00:41:23;;;;;;;18.20;11.50;;;9.20;99.90;9.20;100027.00;;;;4860484;28;112469;-66
2022/04/22 00:43:50;;;;;;;22.93;11.03;;;9.20;99.90;9.20;100026.00;;;;4835081;28;107891;-65
2022/04/22 00:46:16;;;;;;;16.30;10.73;;;9.20;99.90;9.20;100020.00;;;;4862741;28;94483;-65
2022/04/22 00:48:43;;;;;;;17.53;10.77;;;9.20;99.90;9.20;100023.00;;;;4861134;28;93308;-65
2022/04/22 00:51:12;;;;;;;20.50;11.83;;;9.20;99.90;9.20;100020.00;;;;4860419;28;93959;-65
2022/04/22 00:53:41;;;;;;;14.27;9.50;;;9.20;99.90;9.20;100021.00;;;;4861320;28;92807;-65
2022/04/22 00:56:13;;;;;;;17.60;10.80;;;9.20;99.90;9.20;100007.00;;;;4865973;28;114304;-66
2022/04/22 00:58:42;;;;;;;14.43;10.23;;;9.20;99.90;9.20;100025.00;;;;4860540;28;93235;-66
2022/04/22 01:01:08;;;;;;;15.37;10.07;;;9.20;99.90;9.20;100007.00;;;;4860157;28;106620;-66
2022/04/22 01:03:34;;;;;;;16.17;11.07;;;9.20;99.90;9.20;100014.00;;;;4840268;28;93097;-65
2022/04/22 01:11:32;;;;;;;17.73;9.00;;;9.20;99.90;9.10;100002.00;;;;4840061;28;93406;-65
2022/04/22 01:14:02;;;;;;;14.53;10.00;;;9.20;99.90;9.10;100002.00;;;;4858489;28;92800;-65
2022/04/22 01:16:28;;;;;;;19.27;10.27;;;9.20;99.90;9.10;100001.00;;;;4838870;28;115734;-65
2022/04/22 01:18:55;;;;;;;20.10;11.00;;;9.20;99.90;9.10;99990.00;;;;4856899;28;95006;-65
2022/04/22 01:21:21;;;;;;;21.93;11.90;;;9.20;99.90;9.10;99988.00;;;;4875385;28;93058;-65
2022/04/22 01:23:47;;;;;;;20.40;10.53;;;9.20;99.90;9.10;99973.00;;;;4877153;28;93168;-65
2022/04/22 01:26:14;;;;;;;16.97;11.83;;;9.10;99.90;9.10;99978.00;;;;4869767;28;99634;-65
2022/04/22 01:28:42;;;;;;;19.47;11.37;;;9.20;99.90;9.10;99968.00;;;;4873766;28;115957;-65
2022/04/22 01:31:07;;;;;;;18.07;11.60;;;9.10;99.90;9.10;99968.00;;;;4875619;28;103837;-65
2022/04/22 01:33:33;;;;;;;21.37;11.90;;;9.20;99.90;9.10;99970.00;;;;4876395;28;109052;-65
2022/04/22 01:36:00;;;;;;;19.97;11.77;;;9.50;99.90;9.10;99967.00;;;;4871829;28;93250;-65
2022/04/22 01:38:26;;;;;;;19.03;10.50;;;9.10;99.90;9.10;99959.00;;;;4856981;28;93528;-65
2022/04/22 01:40:53;;;;;;;18.57;11.93;;;9.20;99.90;9.10;99966.00;;;;4856255;28;100352;-65
2022/04/22 01:43:19;;;;;;;18.57;12.70;;;9.10;99.90;9.10;99968.00;;;;4857025;28;92959;-66
2022/04/22 01:45:44;;;;;;;20.30;12.17;;;9.10;99.90;9.10;99964.00;;;;4861698;28;93109;-65
2022/04/22 01:48:10;;;;;;;18.97;12.70;;;9.10;99.90;9.10;99972.00;;;;4869952;28;120596;-65
2022/04/22 01:50:36;;;;;;;19.27;11.17;;;9.10;99.90;9.10;99971.00;;;;4874584;28;92836;-65
2022/04/22 01:53:03;;;;;;;18.67;10.60;;;9.20;99.90;9.10;99968.00;;;;4855968;28;109305;-65
2022/04/22 01:55:28;;;;;;;17.73;11.90;;;9.10;99.90;9.10;99959.00;;;;4856993;28;93059;-65
2022/04/22 01:57:54;;;;;;;19.90;11.93;;;8.90;99.90;9.10;99968.00;;;;4873631;28;121812;-65
2022/04/22 02:00:20;;;;;;;15.60;11.97;;;9.10;99.90;9.10;99964.00;;;;4858171;28;92520;-65
2022/04/22 02:02:46;;;;;;;17.57;10.87;;;9.10;99.90;9.10;99957.00;;;;4857139;28;93072;-65
2022/04/22 02:05:12;;;;;;;20.47;12.57;;;9.10;99.90;9.00;99959.00;;;;4856263;28;108656;-65
2022/04/22 02:07:41;;;;;;;22.43;11.60;;;9.10;99.90;9.00;99961.00;;;;4871336;28;122854;-65
2022/04/22 02:10:08;;;;;;;16.93;10.00;;;9.10;99.90;9.10;99953.00;;;;4875548;28;92872;-65
2022/04/22 02:12:34;;;;;;;15.80;10.83;;;9.10;99.90;9.00;99954.00;;;;4875836;28;93094;-65
2022/04/22 02:14:59;;;;;;;17.47;12.47;;;9.10;99.90;9.00;99959.00;;;;4874491;28;122889;-65
2022/04/22 02:17:25;;;;;;;17.43;11.00;;;9.10;99.90;9.00;99961.00;;;;4860930;28;95023;-65
2022/04/22 02:19:51;;;;;;;20.57;12.27;;;9.10;99.90;9.10;99949.00;;;;4862705;28;93234;-65
2022/04/22 02:22:17;;;;;;;20.40;12.50;;;9.10;99.90;9.00;99951.00;;;;4875401;28;108428;-65
2022/04/22 02:24:42;;;;;;;17.27;11.23;;;9.10;99.90;9.00;99946.00;;;;4875559;28;96766;-67
2022/04/22 02:29:53;;;;;;;19.57;11.27;;;9.10;99.90;9.00;99945.00;;;;4872751;28;94165;-66
2022/04/22 02:32:18;;;;;;;19.57;11.97;;;9.10;99.90;9.00;99941.00;;;;4875016;28;106097;-65
2022/04/22 02:34:44;;;;;;;18.07;10.63;;;9.10;99.90;9.10;99946.00;;;;4874752;28;94145;-66
2022/04/22 02:37:10;;;;;;;22.37;12.30;;;9.10;99.90;9.10;99945.00;;;;4863399;28;114399;-66
2022/04/22 02:39:36;;;;;;;16.17;11.30;;;9.10;99.90;9.10;99942.00;;;;4854421;28;92722;-65
2022/04/22 02:47:31;;;;;;;15.00;10.00;;;9.10;99.90;9.10;99950.00;;;;4861535;28;92640;-66
2022/04/22 02:49:56;;;;;;;16.37;10.60;;;9.20;99.90;9.20;99952.00;;;;4854460;28;113077;-66
2022/04/22 02:52:22;;;;;;;30.77;13.00;;;9.20;99.90;9.20;99949.00;;;;4856215;28;92810;-66
2022/04/22 02:54:48;;;;;;;18.43;11.80;;;9.20;99.90;9.20;99939.00;;;;4854799;28;123838;-65
2022/04/22 02:57:16;;;;;;;17.00;11.20;;;9.10;99.90;9.20;99933.00;;;;4869958;28;121631;-66
2022/04/22 02:59:45;;;;;;;19.80;11.03;;;9.20;99.90;9.20;99938.00;;;;4874194;28;112223;-65
2022/04/22 03:02:11;;;;;;;20.20;12.27;;;9.20;99.90;9.10;99932.00;;;;4875208;28;92713;-66
2022/04/22 03:04:37;;;;;;;21.47;12.70;;;9.20;99.90;9.10;99934.00;;;;4874673;28;93112;-65
2022/04/22 03:07:03;;;;;;;15.17;10.67;;;9.20;99.90;9.10;99926.00;;;;4875132;28;93382;-65
2022/04/22 03:10:04;;;;;;;18.53;12.17;;;9.20;99.90;9.10;99918.00;;;;4872557;28;94702;-65
2022/04/22 03:12:43;;;;;;;20.80;12.50;;;9.20;99.90;9.00;99917.00;;;;4875990;28;92105;-65
2022/04/22 03:15:09;;;;;;;18.00;11.57;;;9.10;99.90;9.00;99917.00;;;;4874458;28;95476;-65
2022/04/22 03:17:35;;;;;;;20.00;12.40;;;9.10;99.90;9.00;99907.00;;;;4874087;28;110581;-65
2022/04/22 03:20:00;;;;;;;17.27;12.33;;;9.10;99.90;9.00;99913.00;;;;4871234;28;96400;-66
2022/04/22 03:22:26;;;;;;;14.80;10.20;;;9.00;99.90;8.90;99909.00;;;;4855354;28;107185;-66
2022/04/22 03:24:52;;;;;;;18.00;13.43;;;8.90;99.90;8.90;99904.00;;;;4854936;28;93521;-65
2022/04/22 03:27:18;;;;;;;22.50;14.67;;;8.90;99.90;8.80;99906.00;;;;4862293;28;93011;-65
2022/04/22 03:29:43;;;;;;;20.97;12.77;;;8.90;99.90;8.80;99905.00;;;;4873238;28;113096;-65
2022/04/22 03:32:12;;;;;;;18.00;10.90;;;8.80;99.90;8.80;99904.00;;;;4874697;28;108974;-65
2022/04/22 03:34:38;;;;;;;17.13;12.23;;;8.80;99.90;8.80;99913.00;;;;4861420;28;93855;-65
2022/04/22 03:37:04;;;;;;;20.90;13.00;;;8.80;99.90;8.80;99906.00;;;;4855154;28;111012;-65
2022/04/22 03:39:30;;;;;;;18.13;12.87;;;8.80;99.90;8.70;99910.00;;;;4856406;28;104187;-65
2022/04/22 03:41:56;;;;;;;21.30;12.80;;;8.80;99.90;8.70;99900.00;;;;4873934;28;108605;-65
2022/04/22 03:44:21;;;;;;;21.93;13.10;;;8.70;99.90;8.70;99893.00;;;;4873601;28;95103;-64
2022/04/22 03:46:47;;;;;;;22.07;12.37;;;8.70;99.90;8.70;99898.00;;;;4871901;28;123504;-64
2022/04/22 03:49:13;;;;;;;28.13;13.97;;;8.70;99.90;8.70;99886.00;;;;4857192;28;113440;-65
2022/04/22 03:51:38;;;;;;;25.93;13.23;;;8.70;99.90;8.60;99893.00;;;;4871823;28;107430;-64
2022/04/22 03:54:04;;;;;;;20.03;12.40;;;8.70;99.90;8.60;99886.00;;;;4873793;28;120834;-64
2022/04/22 03:59:14;;;;;;;19.27;11.87;;;8.70;99.90;8.60;99883.00;;;;4854578;28;92559;-65
2022/04/22 04:01:40;;;;;;;20.27;12.07;;;8.70;99.90;8.60;99887.00;;;;4871778;28;109484;-65
2022/04/22 04:04:05;;;;;;;19.03;12.63;;;8.70;99.90;8.60;99891.00;;;;4873297;28;122000;-64
2022/04/22 04:06:40;;;;;;;21.93;13.97;;;8.70;99.90;8.60;99893.00;;;;4873566;28;105404;-64
2022/04/22 04:17:18;;;;;;;17.73;12.83;;;8.70;99.90;8.60;99901.00;;;;4852783;28;92765;-64
2022/04/22 04:25:12;;;;;;;23.27;12.23;;;8.70;99.90;8.70;99894.00;;;;4855463;28;93183;-65
2022/04/22 04:27:38;;;;;;;21.80;13.10;;;8.70;99.90;8.70;99886.00;;;;4863490;28;123015;-66
2022/04/22 04:30:05;;;;;;;25.73;14.77;;;8.70;99.90;8.70;99891.00;;;;4839205;28;92892;-65
2022/04/22 04:32:31;;;;;;;24.87;13.60;;;8.70;99.90;8.70;99879.00;;;;4874427;28;92636;-65
2022/04/22 04:34:57;;;;;;;18.30;13.30;;;8.70;99.90;8.70;99889.00;;;;4872933;28;123545;-65
2022/04/22 04:37:22;;;;;;;20.30;12.97;;;8.70;99.90;8.70;99885.00;;;;4874862;28;122491;-65
2022/04/22 04:39:48;;;;;;;23.37;13.43;;;8.70;99.90;8.70;99888.00;;;;4876142;28;113101;-65
2022/04/22 04:42:14;;;;;;;18.40;13.17;;;8.70;99.90;8.70;99896.00;;;;4876359;28;109218;-65
2022/04/22 04:44:40;;;;;;;17.90;12.10;;;8.80;99.90;8.70;99897.00;;;;4876036;28;122831;-65
2022/04/22 04:47:06;;;;;;;30.30;14.93;;;8.70;99.90;8.70;99889.00;;;;4876935;28;93300;-65
2022/04/22 04:49:31;;;;;;;22.67;13.10;;;8.80;99.90;8.70;99887.00;;;;4876346;28;106416;-65
2022/04/22 04:51:57;;;;;;;23.37;13.57;;;8.80;99.90;8.80;99899.00;;;;4873264;28;108926;-65
2022/04/22 04:54:23;;;;;;;23.37;13.77;;;8.80;99.90;8.80;99901.00;;;;4872517;28;123933;-66
2022/04/22 04:56:50;;;;;;;17.87;11.50;;;8.80;99.90;8.80;99889.00;;;;4872855;28;93542;-65
2022/04/22 04:59:16;;;;;;;21.00;13.77;;;8.80;99.90;8.80;99887.00;;;;4873205;28;94249;-65
2022/04/22 05:01:42;;;;;;;24.27;14.00;;;8.80;99.90;8.80;99883.00;;;;4869606;28;93706;-65
2022/04/22 05:04:08;;;;;;;19.67;12.53;;;8.90;99.90;8.90;99880.00;;;;4872687;28;120813;-65
2022/04/22 05:06:33;;;;;;;23.30;11.67;;;8.90;99.90;8.90;99886.00;;;;4871924;28;123639;-65
2022/04/22 05:09:05;;;;;;;21.47;13.67;;;8.90;99.90;8.90;99888.00;;;;4859884;28;111450;-66
2022/04/22 05:11:31;;;;;;;18.57;12.40;;;9.00;99.90;8.90;99893.00;;;;4867026;28;108401;-66
2022/04/22 05:13:58;;;;;;;23.40;13.90;;;9.00;99.90;8.90;99888.00;;;;4852469;28;123157;-66
2022/04/22 05:16:24;;;;;;;19.00;14.07;;;9.00;99.90;9.00;99879.00;;;;4870772;28;94208;-68
2022/04/22 05:18:50;;;;;;;24.13;12.77;;;9.00;99.90;9.00;99881.00;;;;4870200;28;103649;-69
2022/04/22 05:21:16;;;;;;;20.10;12.93;;;9.00;99.90;9.00;99885.00;;;;4869737;28;106757;-67
2022/04/22 05:23:41;;;;;;;18.53;13.93;;;9.00;99.90;9.00;99888.00;;;;4872093;28;94048;-67
2022/04/22 05:26:07;;;;;;;24.20;13.43;;;9.00;99.90;8.90;99888.00;;;;4870941;28;122348;-67
2022/04/22 05:28:32;;;;;;;22.33;13.87;;;9.00;99.90;8.90;99888.00;;;;4871844;28;112039;-68
2022/04/22 05:33:43;;;;;;;25.47;13.93;;;9.00;99.90;8.90;99881.00;;;;4872011;28;93462;-69
2022/04/22 05:36:09;;;;;;;18.73;12.63;;;9.00;99.90;8.90;99878.00;;;;4872910;28;93800;-69
2022/04/22 05:38:35;;;;;;;24.20;13.37;;;9.00;99.90;8.90;99878.00;;;;4872711;28;93030;-69
2022/04/22 05:41:01;;;;;;;23.23;14.47;;;9.00;99.90;8.90;99878.00;;;;4866526;28;92386;-69
2022/04/22 05:43:28;;;;;;;20.43;13.50;;;9.00;99.90;8.90;99873.00;;;;4871500;28;93201;-71
2022/04/22 05:45:54;;;;;;;22.33;14.43;;;8.90;99.90;8.90;99864.00;;;;4855322;28;93280;-70
2022/04/22 05:48:19;;;;;;;24.60;14.23;;;9.00;99.90;8.90;99860.00;;;;4870826;28;93954;-72
2022/04/22 05:50:45;;;;;;;26.17;13.87;;;9.00;99.90;8.90;99866.00;;;;4871680;28;99117;-71
2022/04/22 05:53:11;;;;;;;24.83;14.87;;;9.00;99.90;8.90;99866.00;;;;4871904;28;94109;-71
2022/04/22 05:55:37;;;;;;;17.13;12.20;;;8.90;99.90;8.90;99865.00;;;;4872190;28;93100;-69
2022/04/22 05:58:03;;;;;;;22.07;12.90;;;8.90;99.90;8.90;99875.00;;;;4868422;28;112536;-69
2022/04/22 06:00:31;;;;;;;23.77;13.33;;;8.90;99.90;8.90;99860.00;;;;4871597;28;100559;-69
2022/04/22 06:02:58;;;;;;;17.23;12.80;;;8.90;99.90;8.90;99862.00;;;;4853957;28;94048;-69
2022/04/22 06:05:24;;;;;;;21.30;13.33;;;9.00;99.90;9.00;99867.00;;;;4872479;28;94186;-68
2022/04/22 06:10:56;;;;;;;25.63;15.23;;;9.10;99.90;9.10;99855.00;;;;4868514;28;93064;-68
2022/04/22 06:13:22;;;;;;;23.70;14.77;;;9.10;99.90;9.10;99849.00;;;;4871375;28;101894;-70
2022/04/22 06:15:47;;;;;;;22.20;14.13;;;9.10;99.90;9.10;99864.00;;;;4871067;28;117927;-70
2022/04/22 06:18:13;;;;;;;25.80;15.63;;;9.20;99.90;9.20;99856.00;;;;4854373;28;93594;-69
2022/04/22 06:20:39;;;;;;;23.07;15.90;;;9.20;99.90;9.20;99870.00;;;;4869708;28;107976;-71
2022/04/22 06:23:04;;;;;;;24.20;15.93;;;9.20;99.90;9.30;99869.00;;;;4870252;28;121637;-70
2022/04/22 06:25:30;;;;;;;25.70;14.50;;;9.30;99.90;9.30;99868.00;;;;4871994;28;92936;-70
2022/04/22 06:27:59;;;;;;;24.53;15.77;;;9.30;99.90;9.30;99869.00;;;;4853758;28;95867;-69
2022/04/22 06:30:25;;;;;;;24.67;14.57;;;9.30;99.90;9.30;99879.00;;;;4870776;28;92292;-69
2022/04/22 06:32:53;;;;;;;25.23;15.03;;;9.50;99.90;9.30;99881.00;;;;4837566;28;95011;-70
2022/04/22 06:35:21;;;;;;;30.03;15.00;;;9.30;99.90;9.30;99874.00;;;;4871599;28;93640;-69
2022/04/22 06:37:50;;;;;;;27.90;15.40;;;9.30;99.90;9.30;99884.00;;;;4871317;28;93850;-69
2022/04/22 06:45:48;;;;;;;26.83;20.53;;;9.30;99.90;9.30;99869.00;;;;4868804;28;92921;-68
2022/04/22 06:48:33;;;;;;;21.83;14.70;;;9.30;99.90;9.30;99871.00;;;;4871930;28;93229;-70
2022/04/22 06:51:01;;;;;;;30.43;20.13;;;9.30;99.90;9.30;99865.00;;;;4868706;28;92968;-70
2022/04/22 06:53:34;;;;;;;29.10;17.40;;;9.30;99.90;9.30;99866.00;;;;4869194;28;93272;-70
2022/04/22 06:56:02;;;;;;;30.07;20.47;;;9.40;99.90;9.40;99879.00;;;;4870785;28;93250;-69
2022/04/22 07:01:22;;;;;;;37.20;27.23;;;9.40;99.90;9.40;99881.00;;;;4865786;28;93081;-70
2022/04/22 07:03:48;;;;;;;25.63;14.57;;;9.50;99.90;9.40;99865.00;;;;4870738;28;94767;-70
2022/04/22 07:06:14;;;;;;;35.23;22.77;;;9.40;99.90;9.40;99873.00;;;;4870492;28;115723;-68
2022/04/22 07:08:49;;;;;;;27.57;17.13;;;9.40;99.90;9.30;99879.00;;;;4869694;28;100227;-68
2022/04/22 07:11:24;;;;;;;22.37;14.53;;;9.40;99.90;9.40;99868.00;;;;4871443;28;93058;-69
2022/04/22 07:13:51;;;;;;;23.27;15.77;;;9.40;99.90;9.40;99864.00;;;;4870863;28;94429;-68
2022/04/22 07:16:20;;;;;;;26.33;18.80;;;9.50;99.90;9.40;99867.00;;;;4870519;28;94637;-69
2022/04/22 07:18:47;;;;;;;22.20;15.00;;;9.60;99.90;9.40;99882.00;;;;4854002;28;92920;-68
2022/04/22 07:21:14;;;;;;;24.80;15.07;;;9.40;99.90;9.40;99874.00;;;;4853332;28;91935;-68
2022/04/22 07:23:40;;;;;;;57.77;43.13;;;9.50;99.90;9.50;99873.00;;;;4870620;28;94331;-68
2022/04/22 07:26:09;;;;;;;39.93;27.53;;;9.50;99.90;9.50;99876.00;;;;4853482;28;93203;-68
2022/04/22 07:28:37;;;;;;;24.10;15.37;;;9.50;99.90;9.50;99873.00;;;;4870577;28;94850;-67
2022/04/22 07:31:04;;;;;;;38.67;27.73;;;9.50;99.90;9.50;99879.00;;;;4871191;28;92897;-68
2022/04/22 07:33:33;;;;;;;20.67;14.27;;;9.50;99.90;9.50;99879.00;;;;4870037;28;113821;-67
2022/04/22 07:36:00;;;;;;;31.87;15.70;;;9.60;99.90;9.60;99869.00;;;;4868780;28;113579;-67
2022/04/22 07:38:26;;;;;;;47.90;34.77;;;9.60;99.90;9.60;99871.00;;;;4871220;28;94051;-67
2022/04/22 07:40:52;;;;;;;60.53;41.17;;;9.60;99.90;9.60;99864.00;;;;4870725;28;93010;-67
2022/04/22 07:48:55;;;;;;;33.83;25.47;;;9.60;99.90;9.60;99863.00;;;;4871454;28;93115;-68
2022/04/22 07:51:26;;;;;;;116.63;86.90;;;9.60;99.90;9.70;99862.00;;;;4870201;28;94163;-67
2022/04/22 07:53:55;;;;;;;23.53;15.87;;;9.70;99.90;9.70;99867.00;;;;4870127;28;94113;-67
2022/04/22 07:56:20;;;;;;;33.70;25.37;;;9.70;99.90;9.70;99853.00;;;;4866266;28;94821;-67
2022/04/22 07:58:46;;;;;;;28.47;16.53;;;9.70;99.90;9.70;99853.00;;;;4870828;28;92912;-68
2022/04/22 08:01:12;;;;;;;28.90;19.10;;;9.70;99.90;9.70;99858.00;;;;4870101;28;99108;-67
2022/04/22 08:03:37;;;;;;;24.10;14.30;;;9.80;99.90;9.80;99865.00;;;;4851833;28;93086;-69
2022/04/22 08:06:06;;;;;;;26.30;16.63;;;9.80;99.90;9.80;99863.00;;;;4869539;28;122870;-68
2022/04/22 08:08:32;;;;;;;19.37;14.90;;;9.70;99.90;9.80;99858.00;;;;4870111;28;92994;-67
2022/04/22 08:10:58;;;;;;;21.13;13.67;;;9.80;99.90;9.80;99860.00;;;;4871264;28;92052;-67
2022/04/22 08:13:26;;;;;;;24.47;15.27;;;9.80;99.90;9.80;99863.00;;;;4867190;28;94342;-69
2022/04/22 08:16:01;;;;;;;83.70;67.37;;;9.80;99.90;9.80;99855.00;;;;4874067;28;92999;-69
2022/04/22 08:18:26;;;;;;;83.50;68.23;;;9.90;99.90;9.90;99869.00;;;;4855384;28;98561;-69
2022/04/22 08:20:52;;;;;;;85.77;74.80;;;9.90;99.90;9.90;99863.00;;;;4855142;28;107339;-68
2022/04/22 08:23:21;;;;;;;32.40;27.40;;;9.90;99.90;9.90;99865.00;;;;4850316;28;122462;-67
2022/04/22 08:25:46;;;;;;;24.50;16.97;;;9.90;99.90;10.00;99862.00;;;;4873246;28;93618;-66
2022/04/22 08:28:12;;;;;;;70.40;58.97;;;10.00;99.90;10.00;99856.00;;;;4871309;28;112806;-69
2022/04/22 08:30:38;;;;;;;26.17;18.23;;;10.00;99.90;10.10;99854.00;;;;4872635;28;109498;-68
2022/04/22 08:33:04;;;;;;;22.87;15.07;;;10.00;99.90;10.10;99855.00;;;;4870314;28;121666;-66
2022/04/22 08:35:29;;;;;;;22.80;16.93;;;10.10;99.90;10.10;99863.00;;;;4873347;28;117453;-67
2022/04/22 08:37:55;;;;;;;24.83;17.10;;;10.10;99.90;10.20;99859.00;;;;4872732;28;112852;-66
2022/04/22 08:40:21;;;;;;;21.43;15.53;;;10.20;99.90;10.20;99856.00;;;;4873600;28;92673;-67
2022/04/22 08:42:48;;;;;;;22.50;13.97;;;10.20;99.90;10.20;99854.00;;;;4871905;28;122510;-66
2022/04/22 08:45:14;;;;;;;27.80;18.23;;;10.30;99.90;10.20;99863.00;;;;4852325;28;95147;-65
2022/04/22 08:50:30;;;;;;;23.43;15.00;;;10.30;99.90;10.30;99859.00;;;;4870890;28;92843;-66
2022/04/22 08:53:01;;;;;;;23.47;16.77;;;10.30;99.90;10.30;99860.00;;;;4847777;28;94181;-67
2022/04/22 08:55:27;;;;;;;48.43;39.33;;;10.30;99.90;10.30;99850.00;;;;4849074;28;110240;-66
2022/04/22 08:57:54;;;;;;;19.40;13.97;;;10.30;99.90;10.30;99848.00;;;;4853185;28;112638;-67
2022/04/22 09:00:22;;;;;;;25.77;18.33;;;10.30;99.90;10.40;99835.00;;;;4874340;28;92383;-65
2022/04/22 09:02:49;;;;;;;35.77;28.80;;;10.40;99.90;10.30;99837.00;;;;4873203;28;92936;-65
2022/04/22 09:05:16;;;;;;;162.20;88.73;;;10.40;99.90;10.40;99840.00;;;;4868341;28;94212;-65
2022/04/22 09:07:44;;;;;;;51.53;29.80;;;10.40;99.90;10.40;99836.00;;;;4872821;28;94057;-66
2022/04/22 09:10:11;;;;;;;30.10;22.40;;;10.40;99.90;10.50;99849.00;;;;4874013;28;93287;-65
2022/04/22 09:12:37;;;;;;;28.37;16.03;;;10.50;99.90;10.60;99830.00;;;;4872311;28;93536;-65
2022/04/22 09:15:03;;;;;;;26.80;19.83;;;10.60;99.90;10.70;99838.00;;;;4851252;28;94597;-64
2022/04/22 09:17:33;;;;;;;25.00;14.50;;;10.60;99.90;10.70;99832.00;;;;4872903;28;92976;-64
2022/04/22 09:20:04;;;;;;;29.23;15.10;;;10.70;99.90;10.80;99836.00;;;;4872780;28;93002;-64
2022/04/22 09:22:36;;;;;;;19.97;13.77;;;10.70;99.90;10.90;99838.00;;;;4871426;28;114880;-64
2022/04/22 09:25:05;;;;;;;30.33;23.23;;;10.80;99.90;10.90;99831.00;;;;4870988;28;93659;-65
2022/04/22 09:27:35;;;;;;;21.57;13.60;;;10.90;99.90;11.00;99833.00;;;;4870860;28;93040;-63
2022/04/22 09:30:10;;;;;;;21.70;12.17;;;11.00;99.90;11.10;99831.00;;;;4872196;28;92866;-64
2022/04/22 09:32:44;;;;;;;22.70;12.93;;;11.00;99.90;11.10;99836.00;;;;4865422;28;94009;-64
2022/04/22 09:35:24;;;;;;;16.47;11.13;;;11.10;99.90;11.20;99833.00;;;;4871342;28;94545;-64
2022/04/22 09:43:42;;;;;;;16.87;11.87;;;11.30;99.90;11.50;99830.00;;;;4868559;28;92902;-63
2022/04/22 09:46:32;;;;;;;17.27;10.63;;;11.40;99.90;11.50;99833.00;;;;4872466;28;93052;-64
2022/04/22 09:49:01;;;;;;;20.63;15.17;;;11.50;99.90;11.70;99817.00;;;;4873083;28;92791;-64
2022/04/22 09:51:32;;;;;;;32.63;21.20;;;11.60;99.90;11.80;99809.00;;;;4871267;28;99563;-65
2022/04/22 09:54:07;;;;;;;17.80;13.43;;;11.70;99.90;12.00;99808.00;;;;4871177;28;93060;-64
2022/04/22 09:56:34;;;;;;;18.03;12.43;;;11.90;99.90;12.20;99812.00;;;;4854897;28;93193;-65
2022/04/22 09:59:22;;;;;;;19.07;11.10;;;12.00;99.90;12.30;99808.00;;;;4854321;28;94176;-65
2022/04/22 10:01:49;;;;;;;14.97;12.50;;;12.20;99.90;12.40;99812.00;;;;4872706;28;93001;-66
2022/04/22 10:04:18;;;;;;;19.43;15.63;;;12.30;99.90;12.50;99811.00;;;;4867017;28;97357;-64
2022/04/22 10:06:45;;;;;;;13.93;9.50;;;12.40;99.90;12.50;99817.00;;;;4871732;28;110065;-66
2022/04/22 10:09:14;;;;;;;15.37;9.63;;;12.40;99.90;12.50;99813.00;;;;4873848;28;93007;-65
2022/04/22 10:11:41;;;;;;;16.27;11.50;;;12.50;99.90;12.60;99820.00;;;;4872655;28;92975;-64
2022/04/22 10:14:11;;;;;;;18.20;11.70;;;12.50;99.90;12.60;99800.00;;;;4872414;28;94441;-65
2022/04/22 10:16:39;;;;;;;13.97;10.67;;;12.60;99.90;12.80;99803.00;;;;4870954;28;92907;-65
2022/04/22 10:19:05;;;;;;;23.03;13.03;;;12.70;99.90;12.80;99801.00;;;;4870812;28;92860;-64
2022/04/22 10:21:32;;;;;;;24.67;15.53;;;12.70;99.90;13.00;99803.00;;;;4872022;28;92754;-64
2022/04/22 10:24:00;;;;;;;29.30;18.87;;;12.80;99.90;13.20;99794.00;;;;4870314;28;124667;-65
2022/04/22 10:26:26;;;;;;;13.50;9.07;;;13.00;99.90;13.40;99797.00;;;;4869243;28;123726;-66
2022/04/22 10:29:14;;;;;;;29.57;19.20;;;13.20;99.90;13.70;99789.00;;;;4869203;28;92737;-64
2022/04/22 10:31:40;;;;;;;13.47;10.80;;;13.50;99.90;13.90;99793.00;;;;4853365;28;92982;-65
2022/04/22 10:34:07;;;;;;;19.23;13.48;;;13.80;99.90;14.10;99794.00;;;;4852689;28;123310;-65
2022/04/22 10:36:34;;;;;;;12.23;9.07;;;13.90;99.90;14.30;99786.00;;;;4872036;28;93508;-64
2022/04/22 10:39:00;;;;;;;11.63;7.97;;;14.10;99.90;14.50;99787.00;;;;4871580;28;92845;-64
2022/04/22 10:41:25;;;;;;;98.32;57.67;;;14.30;99.90;14.80;99780.00;;;;4873144;28;92098;-64
2022/04/22 10:49:43;;;;;;;29.45;16.60;;;15.30;99.90;15.70;99766.00;;;;4849159;28;93929;-65
2022/04/22 10:52:13;;;;;;;41.42;28.27;;;15.50;99.90;15.90;99779.00;;;;4871463;28;92853;-65
2022/04/22 10:54:59;;;;;;;67.97;39.65;;;15.70;99.90;16.20;99770.00;;;;4871989;28;94056;-64
2022/04/22 10:57:35;;;;;;;21.05;13.32;;;15.90;99.90;16.40;99762.00;;;;4868100;28;93881;-65
2022/04/22 11:00:12;;;;;;;11.55;9.23;;;16.10;99.90;16.70;99761.00;;;;4872010;28;93172;-65
2022/04/22 11:02:42;;;;;;;15.30;8.70;;;16.40;99.90;16.90;99760.00;;;;4864596;28;93077;-65
2022/04/22 11:05:19;;;;;;;9.48;7.65;;;16.60;99.90;17.00;99772.00;;;;4865575;28;92962;-64
2022/04/22 11:07:55;;;;;;;9.80;7.47;;;16.70;99.90;17.10;99769.00;;;;4872512;28;93685;-64
2022/04/22 11:10:23;;;;;;;13.07;9.13;;;16.80;99.90;17.10;99767.00;;;;4872428;28;93074;-63
2022/04/22 11:12:59;;;;;;;14.02;8.18;;;16.80;99.90;16.80;99779.00;;;;4872302;28;92866;-64
2022/04/22 11:15:43;;;;;;;20.75;12.77;;;16.70;99.90;16.60;99766.00;;;;4872050;28;94709;-64
2022/04/22 11:18:14;;;;;;;26.75;17.73;;;16.50;99.90;16.30;99772.00;;;;4868595;28;120812;-64
2022/04/22 11:20:47;;;;;;;24.90;15.57;;;16.30;99.90;16.00;99755.00;;;;4871628;28;92860;-64
2022/04/22 11:23:15;;;;;;;25.23;15.13;;;16.00;99.90;15.90;99766.00;;;;4853038;28;92834;-64
2022/04/22 11:25:42;;;;;;;14.32;9.15;;;15.80;99.90;15.70;99765.00;;;;4867564;28;98226;-65
2022/04/22 11:28:09;;;;;;;14.13;8.95;;;15.70;99.90;15.60;99768.00;;;;4872270;28;93924;-64
2022/04/22 11:30:36;;;;;;;10.30;7.50;;;15.50;99.90;15.50;99767.00;;;;4871981;28;99046;-64
2022/04/22 11:33:16;;;;;;;10.50;7.18;;;15.40;99.90;15.40;99776.00;;;;4871038;28;96176;-65
2022/04/22 11:35:41;;;;;;;13.07;9.32;;;15.40;99.90;15.30;99775.00;;;;4870550;28;93203;-64
2022/04/22 11:38:10;;;;;;;10.35;7.78;;;15.30;99.90;15.20;99770.00;;;;4871157;28;93646;-64
2022/04/22 11:40:40;;;;;;;11.45;6.85;;;15.20;99.90;15.10;99773.00;;;;4871909;28;94061;-64
2022/04/22 11:43:40;;;;;;;8.07;6.80;;;15.10;99.90;15.00;99780.00;;;;4871830;28;92954;-64
2022/04/22 11:46:05;;;;;;;13.07;7.72;;;15.00;99.90;15.10;99778.00;;;;4871393;28;94017;-63
2022/04/22 11:48:31;;;;;;;12.15;7.75;;;15.00;99.90;15.20;99781.00;;;;4866530;28;122736;-63
2022/04/22 11:50:58;;;;;;;13.55;7.35;;;15.00;99.90;15.20;99783.00;;;;4863674;28;109924;-64
2022/04/22 11:53:35;;;;;;;6.80;6.07;;;15.10;99.90;15.30;99786.00;;;;4871693;28;92811;-64